createdAt,value
2019-03-25T00:02:43.341Z,3.90
2019-03-25T00:06:49.678Z,4.13
2019-03-25T00:10:55.934Z,4.30
2019-03-25T00:15:02.484Z,3.80
2019-03-25T00:19:08.668Z,3.83
2019-03-25T00:23:14.995Z,4.00
2019-03-25T00:27:21.358Z,3.40
2019-03-25T00:31:27.731Z,3.67
2019-03-25T00:35:34.031Z,4.23
2019-03-25T00:39:40.297Z,4.33
2019-03-25T00:43:46.505Z,4.37
2019-03-25T00:47:52.806Z,3.87
2019-03-25T00:51:59.098Z,4.00
2019-03-25T00:56:05.405Z,4.10
2019-03-25T01:00:12.822Z,4.57
2019-03-25T01:04:21.204Z,4.57
2019-03-25T01:08:27.494Z,4.13
2019-03-25T01:12:33.803Z,5.97
2019-03-25T01:16:40.412Z,5.03
2019-03-25T01:20:46.757Z,4.57
2019-03-25T01:25:01.241Z,5.13
2019-03-25T01:29:01.281Z,4.40
2019-03-25T01:33:07.658Z,4.67
2019-03-25T01:37:13.828Z,5.13
2019-03-25T01:41:20.115Z,5.70
2019-03-25T01:45:26.389Z,5.43
2019-03-25T01:49:32.591Z,5.90
2019-03-25T01:53:38.843Z,4.90
2019-03-25T01:57:45.142Z,5.40
2019-03-25T02:01:51.400Z,5.10
2019-03-25T02:05:57.631Z,5.70
2019-03-25T02:10:04.188Z,5.77
2019-03-25T02:14:10.759Z,5.50
2019-03-25T02:18:17.366Z,5.27
2019-03-25T02:22:23.716Z,5.77
2019-03-25T02:26:30.017Z,5.40
2019-03-25T02:30:36.324Z,5.77
2019-03-25T02:34:42.630Z,5.90
2019-03-25T02:38:57.675Z,5.80
2019-03-25T02:43:03.961Z,5.57
2019-03-25T02:47:10.260Z,5.20
2019-03-25T02:51:16.530Z,5.90
2019-03-25T02:55:23.305Z,5.40
2019-03-25T02:59:29.511Z,5.40
2019-03-25T03:03:35.723Z,5.73
2019-03-25T03:07:42.055Z,6.13
2019-03-25T03:11:48.674Z,6.17
2019-03-25T03:15:54.983Z,6.17
2019-03-25T03:20:01.179Z,5.77
2019-03-25T03:24:07.422Z,6.00
2019-03-25T03:28:13.691Z,6.47
2019-03-25T03:32:19.939Z,5.60
2019-03-25T03:36:26.240Z,5.20
2019-03-25T03:40:32.518Z,5.40
2019-03-25T03:44:38.813Z,4.70
2019-03-25T03:48:45.100Z,5.50
2019-03-25T03:52:51.394Z,5.37
2019-03-25T03:56:58.062Z,5.40
2019-03-25T04:01:04.624Z,5.23
2019-03-25T04:05:10.906Z,5.70
2019-03-25T04:09:17.184Z,6.07
2019-03-25T04:13:23.570Z,5.57
2019-03-25T04:17:30.167Z,5.63
2019-03-25T04:21:36.462Z,5.57
2019-03-25T04:25:42.713Z,5.43
2019-03-25T04:29:48.907Z,5.13
2019-03-25T04:33:55.205Z,4.70
2019-03-25T04:38:01.328Z,4.60
2019-03-25T04:42:07.608Z,4.63
2019-03-25T04:46:13.903Z,4.50
2019-03-25T04:50:20.255Z,4.13
2019-03-25T04:54:26.893Z,3.30
2019-03-25T04:58:33.177Z,3.03
2019-03-25T05:02:39.456Z,2.93
2019-03-25T05:06:45.669Z,2.40
2019-03-25T05:10:51.966Z,2.47
2019-03-25T05:14:58.827Z,2.30
2019-03-25T05:19:05.444Z,2.40
2019-03-25T05:23:12.713Z,2.20
2019-03-25T05:27:19.055Z,2.50
2019-03-25T05:31:25.211Z,1.93
2019-03-25T05:35:31.565Z,2.60
2019-03-25T05:39:37.899Z,2.70
2019-03-25T05:43:44.281Z,2.47
2019-03-25T05:47:50.495Z,2.53
2019-03-25T05:51:57.747Z,2.20
2019-03-25T05:56:05.287Z,2.50
2019-03-25T06:00:12.352Z,2.63
2019-03-25T06:04:18.690Z,2.30
2019-03-25T06:08:26.275Z,2.70
2019-03-25T06:12:32.609Z,4.90
2019-03-25T06:16:40.120Z,3.27
2019-03-25T06:21:02.434Z,3.37
2019-03-25T06:25:09.406Z,3.10
2019-03-25T06:29:15.776Z,3.10
2019-03-25T06:33:22.424Z,3.20
2019-03-25T06:37:29.064Z,4.13
2019-03-25T06:41:35.427Z,3.33
2019-03-25T06:45:44.566Z,3.30
2019-03-25T06:49:51.432Z,3.13
2019-03-25T06:53:58.152Z,4.47
2019-03-25T06:58:06.153Z,3.60
2019-03-25T07:02:12.621Z,4.07
2019-03-25T07:06:19.224Z,3.83
2019-03-25T07:10:36.809Z,3.17
2019-03-25T07:14:44.346Z,3.93
2019-03-25T07:18:51.162Z,4.07
2019-03-25T07:23:02.858Z,4.20
2019-03-25T07:27:16.664Z,4.13
2019-03-25T07:31:23.388Z,6.40
2019-03-25T07:35:29.783Z,6.33
2019-03-25T07:39:38.059Z,3.30
2019-03-25T07:44:18.544Z,3.33
2019-03-25T07:49:48.691Z,3.07
2019-03-25T07:54:00.797Z,3.30
2019-03-25T07:59:17.561Z,3.27
2019-03-25T08:03:24.147Z,3.67
2019-03-25T08:07:31.530Z,4.03
2019-03-25T08:11:37.800Z,3.67
2019-03-25T08:15:44.131Z,3.53
2019-03-25T08:19:50.393Z,4.00
2019-03-25T08:23:56.941Z,3.50
2019-03-25T08:28:12.343Z,4.03
2019-03-25T08:32:18.643Z,3.00
2019-03-25T08:36:25.043Z,3.47
2019-03-25T08:40:31.339Z,2.87
2019-03-25T08:44:37.772Z,2.83
2019-03-25T08:48:44.075Z,3.03
2019-03-25T08:52:56.290Z,2.60
2019-03-25T08:57:02.628Z,2.53
2019-03-25T09:01:08.961Z,2.40
2019-03-25T09:05:15.475Z,2.30
2019-03-25T09:09:21.698Z,2.67
2019-03-25T09:13:29.113Z,2.40
2019-03-25T09:17:35.496Z,2.20
2019-03-25T09:21:42.142Z,2.50
2019-03-25T09:25:48.410Z,2.10
2019-03-25T09:30:57.107Z,2.13
2019-03-25T09:35:03.542Z,2.60
2019-03-25T09:39:09.856Z,2.17
2019-03-25T09:43:16.285Z,1.87
2019-03-25T09:47:22.596Z,3.00
2019-03-25T09:51:28.912Z,2.67
2019-03-25T09:55:35.385Z,2.10
2019-03-25T09:59:41.673Z,2.17
2019-03-25T10:03:48.019Z,2.33
2019-03-25T10:07:54.315Z,2.37
2019-03-25T10:12:00.759Z,2.10
2019-03-25T10:16:07.588Z,2.00
2019-03-25T10:20:14.001Z,0.90
2019-03-25T10:24:27.418Z,1.23
2019-03-25T10:28:28.251Z,1.30
2019-03-25T10:32:34.456Z,1.67
2019-03-25T10:36:40.710Z,1.90
2019-03-25T10:40:47.001Z,1.93
2019-03-25T10:44:53.452Z,2.23
2019-03-25T10:48:59.702Z,2.10
2019-03-25T10:53:07.197Z,2.00
2019-03-25T10:57:13.591Z,1.70
2019-03-25T11:01:19.958Z,1.90
2019-03-25T11:05:26.296Z,2.60
2019-03-25T11:09:32.687Z,3.63
2019-03-25T11:13:39.015Z,2.47
2019-03-25T11:17:45.304Z,2.90
2019-03-25T11:21:52.637Z,1.63
2019-03-25T11:26:00.394Z,2.13
2019-03-25T11:30:09.248Z,2.67
2019-03-25T11:34:15.926Z,3.33
2019-03-25T11:38:22.263Z,2.20
2019-03-25T11:42:28.809Z,2.57
2019-03-25T11:46:35.432Z,1.90
2019-03-25T11:50:41.969Z,1.40
2019-03-25T11:54:48.266Z,1.93
2019-03-25T11:58:54.546Z,2.50
2019-03-25T12:03:00.949Z,2.23
2019-03-25T12:07:07.324Z,1.90
2019-03-25T12:11:13.589Z,2.10
2019-03-25T12:15:19.864Z,2.67
2019-03-25T12:19:26.204Z,1.80
2019-03-25T12:23:33.481Z,1.10
2019-03-25T12:27:39.754Z,0.80
2019-03-25T12:31:46.150Z,0.60
2019-03-25T12:35:52.734Z,1.17
2019-03-25T12:39:59.139Z,0.60
2019-03-25T12:44:05.718Z,1.03
2019-03-25T12:48:17.951Z,1.50
2019-03-25T12:52:24.239Z,1.47
2019-03-25T12:56:30.546Z,1.93
2019-03-25T13:00:43.411Z,1.77
2019-03-25T13:04:51.073Z,1.67
2019-03-25T13:09:00.043Z,1.87
2019-03-25T13:13:14.166Z,1.77
2019-03-25T13:17:20.543Z,2.07
2019-03-25T13:22:25.729Z,1.50
2019-03-25T13:26:34.222Z,2.20
2019-03-25T13:30:43.536Z,2.20
2019-03-25T13:34:54.714Z,2.27
2019-03-25T13:39:09.376Z,2.45
2019-03-25T13:43:16.143Z,2.40
2019-03-25T13:47:23.851Z,2.23
2019-03-25T13:51:30.184Z,1.83
2019-03-25T13:55:37.080Z,2.30
2019-03-25T13:59:43.488Z,2.30
2019-03-25T14:03:49.698Z,2.97
2019-03-25T14:07:56.038Z,2.83
2019-03-25T14:12:02.471Z,2.73
2019-03-25T14:16:08.974Z,2.50
2019-03-25T14:20:17.317Z,2.07
2019-03-25T14:24:23.824Z,2.33
2019-03-25T14:28:42.314Z,1.97
2019-03-25T14:32:48.542Z,3.70
2019-03-25T14:36:54.901Z,1.83
2019-03-25T14:41:01.217Z,1.80
2019-03-25T14:45:09.562Z,2.50
2019-03-25T14:49:15.828Z,2.13
2019-03-25T14:53:22.696Z,2.20
2019-03-25T14:57:29.014Z,2.10
2019-03-25T15:01:35.527Z,2.53
2019-03-25T15:05:41.832Z,2.42
2019-03-25T15:09:48.323Z,2.07
2019-03-25T15:13:54.681Z,2.50
2019-03-25T15:18:00.954Z,2.27
2019-03-25T15:22:07.212Z,3.80
2019-03-25T15:26:13.504Z,2.60
2019-03-25T15:30:20.781Z,3.00
2019-03-25T15:34:26.987Z,2.00
2019-03-25T15:38:33.670Z,3.20
2019-03-25T15:42:40.761Z,2.60
2019-03-25T15:46:55.287Z,2.30
2019-03-25T15:50:54.940Z,3.73
2019-03-25T15:55:01.329Z,3.30
2019-03-25T15:59:07.701Z,3.10
2019-03-25T16:03:14.004Z,2.60
2019-03-25T16:07:39.303Z,3.20
2019-03-25T16:11:45.607Z,2.67
2019-03-25T16:15:51.927Z,2.50
2019-03-25T16:19:58.221Z,3.00
2019-03-25T16:24:04.500Z,2.72
2019-03-25T16:28:15.648Z,3.37
2019-03-25T16:32:20.885Z,4.30
2019-03-25T16:36:27.277Z,4.00
2019-03-25T16:40:33.617Z,3.13
2019-03-25T16:44:40.900Z,4.30
2019-03-25T16:48:47.216Z,3.70
2019-03-25T16:52:53.513Z,3.60
2019-03-25T16:56:59.904Z,3.10
2019-03-25T17:01:15.535Z,3.07
2019-03-25T17:05:21.814Z,2.33
2019-03-25T17:09:28.138Z,2.30
2019-03-25T17:13:34.887Z,2.70
2019-03-25T17:17:41.163Z,2.17
2019-03-25T17:21:57.737Z,2.33
2019-03-25T17:25:55.904Z,1.77
2019-03-25T17:30:02.157Z,2.17
2019-03-25T17:34:08.458Z,2.70
2019-03-25T17:38:14.906Z,2.57
2019-03-25T17:42:21.211Z,1.70
2019-03-25T17:46:27.560Z,1.90
2019-03-25T17:50:33.969Z,1.73
2019-03-25T17:54:41.623Z,2.40
2019-03-25T17:58:51.109Z,1.93
2019-03-25T18:02:57.469Z,2.23
2019-03-25T18:07:03.847Z,2.43
2019-03-25T18:11:10.478Z,2.20
2019-03-25T18:15:17.074Z,1.73
2019-03-25T18:19:25.491Z,2.20
2019-03-25T18:23:31.643Z,2.77
2019-03-25T18:27:38.215Z,2.27
2019-03-25T18:31:45.637Z,3.20
2019-03-25T18:35:51.965Z,2.17
2019-03-25T18:39:58.125Z,2.00
2019-03-25T18:44:06.809Z,2.13
2019-03-25T18:48:13.143Z,1.70
2019-03-25T18:52:19.673Z,2.03
2019-03-25T18:56:25.985Z,2.13
2019-03-25T19:00:36.082Z,2.43
2019-03-25T19:04:42.435Z,2.30
2019-03-25T19:08:49.410Z,2.63
2019-03-25T19:12:56.666Z,2.57
2019-03-25T19:17:05.523Z,2.47
2019-03-25T19:21:11.997Z,2.50
2019-03-25T19:25:19.303Z,2.60
2019-03-25T19:29:25.906Z,2.65
2019-03-25T19:33:32.248Z,2.50
2019-03-25T19:37:38.580Z,2.80
2019-03-25T19:41:44.850Z,2.93
2019-03-25T19:45:52.359Z,3.10
2019-03-25T19:49:59.076Z,2.43
2019-03-25T19:54:05.580Z,2.90
2019-03-25T19:58:13.475Z,2.97
2019-03-25T20:02:19.976Z,3.47
2019-03-25T20:06:26.723Z,2.77
2019-03-25T20:10:35.458Z,2.40
2019-03-25T20:14:41.998Z,3.00
2019-03-25T20:18:48.471Z,2.20
2019-03-25T20:22:55.000Z,2.50
2019-03-25T20:27:01.443Z,2.40
2019-03-25T20:31:07.962Z,2.13
2019-03-25T20:35:16.668Z,2.40
2019-03-25T20:39:23.281Z,2.93
2019-03-25T20:43:32.973Z,2.70
2019-03-25T20:47:39.639Z,2.90
2019-03-25T20:51:46.066Z,3.37
2019-03-25T20:55:52.593Z,3.23
2019-03-25T21:00:02.274Z,2.47
2019-03-25T21:04:08.825Z,3.20
2019-03-25T21:08:17.222Z,2.73
2019-03-25T21:12:25.901Z,3.70
2019-03-25T21:16:33.954Z,3.40
2019-03-25T21:20:40.401Z,3.73
2019-03-25T21:24:48.514Z,2.97
2019-03-25T21:28:55.068Z,2.90
2019-03-25T21:33:01.835Z,2.53
2019-03-25T21:37:10.468Z,2.93
2019-03-25T21:41:19.615Z,3.17
2019-03-25T21:45:26.178Z,3.00
2019-03-25T21:49:32.490Z,2.90
2019-03-25T21:53:38.706Z,3.37
2019-03-25T21:57:45.056Z,2.90
2019-03-25T22:01:51.347Z,4.87
2019-03-25T22:05:57.923Z,4.07
2019-03-25T22:10:04.400Z,3.50
2019-03-25T22:14:11.016Z,3.73
2019-03-25T22:18:17.299Z,3.03
2019-03-25T22:22:23.534Z,2.57
2019-03-25T22:26:29.875Z,2.90
2019-03-25T22:30:36.087Z,3.10
2019-03-25T22:34:42.437Z,2.77
2019-03-25T22:38:49.123Z,2.93
2019-03-25T22:42:55.814Z,3.53
2019-03-25T22:47:02.204Z,3.30
2019-03-25T22:51:08.532Z,2.80
2019-03-25T22:55:16.877Z,2.73
2019-03-25T22:59:23.229Z,3.37
2019-03-25T23:03:39.011Z,4.10
2019-03-25T23:07:37.856Z,8.37
2019-03-25T23:11:44.454Z,3.80
2019-03-25T23:15:50.810Z,3.73
2019-03-25T23:19:57.114Z,2.33
2019-03-25T23:24:03.462Z,3.03
2019-03-25T23:28:11.217Z,2.47
2019-03-25T23:32:17.567Z,2.90
2019-03-25T23:36:23.987Z,2.53
2019-03-25T23:40:30.700Z,2.60
2019-03-25T23:44:37.086Z,2.30
2019-03-25T23:48:43.696Z,3.30
2019-03-25T23:52:50.118Z,2.43
2019-03-25T23:56:56.457Z,3.03
